sensor_id;sensor_type;location;lat;lon;timestamp;temperature;humidity
9425;DHT22;17139;52.140;11.636;2023-12-14T00:00:14;4.30;74.60
9425;DHT22;17139;52.140;11.636;2023-12-14T00:02:41;4.30;74.90
9425;DHT22;17139;52.140;11.636;2023-12-14T00:05:08;4.30;74.90
9425;DHT22;17139;52.140;11.636;2023-12-14T00:07:35;4.20;75.00
9425;DHT22;17139;52.140;11.636;2023-12-14T00:10:03;4.20;75.00
9425;DHT22;17139;52.140;11.636;2023-12-14T00:12:30;4.20;75.00
9425;DHT22;17139;52.140;11.636;2023-12-14T00:14:57;4.20;74.90
9425;DHT22;17139;52.140;11.636;2023-12-14T00:17:26;4.20;74.90
9425;DHT22;17139;52.140;11.636;2023-12-14T00:19:53;4.10;74.80
9425;DHT22;17139;52.140;11.636;2023-12-14T00:22:20;4.20;74.90
9425;DHT22;17139;52.140;11.636;2023-12-14T00:24:47;4.70;73.50
9425;DHT22;17139;52.140;11.636;2023-12-14T00:27:14;4.70;73.30
9425;DHT22;17139;52.140;11.636;2023-12-14T00:29:41;4.50;73.60
9425;DHT22;17139;52.140;11.636;2023-12-14T00:32:08;4.40;74.00
9425;DHT22;17139;52.140;11.636;2023-12-14T00:34:37;4.40;74.20
9425;DHT22;17139;52.140;11.636;2023-12-14T00:37:04;4.30;74.30
9425;DHT22;17139;52.140;11.636;2023-12-14T00:39:31;4.30;74.40
9425;DHT22;17139;52.140;11.636;2023-12-14T00:41:58;4.20;74.40
9425;DHT22;17139;52.140;11.636;2023-12-14T00:44:25;4.20;74.40
9425;DHT22;17139;52.140;11.636;2023-12-14T00:46:52;4.20;74.50
9425;DHT22;17139;52.140;11.636;2023-12-14T00:49:19;4.20;74.60
9425;DHT22;17139;52.140;11.636;2023-12-14T00:51:47;4.10;74.50
9425;DHT22;17139;52.140;11.636;2023-12-14T00:54:14;4.10;74.50
9425;DHT22;17139;52.140;11.636;2023-12-14T00:56:41;4.10;74.50
9425;DHT22;17139;52.140;11.636;2023-12-14T00:59:08;4.10;74.60
9425;DHT22;17139;52.140;11.636;2023-12-14T01:01:35;4.20;74.40
9425;DHT22;17139;52.140;11.636;2023-12-14T01:04:02;4.20;74.10
9425;DHT22;17139;52.140;11.636;2023-12-14T01:06:30;4.20;74.30
9425;DHT22;17139;52.140;11.636;2023-12-14T01:08:58;4.60;73.30
9425;DHT22;17139;52.140;11.636;2023-12-14T01:11:25;4.50;73.10
9425;DHT22;17139;52.140;11.636;2023-12-14T01:13:52;4.30;73.50
9425;DHT22;17139;52.140;11.636;2023-12-14T01:16:19;4.20;73.80
9425;DHT22;17139;52.140;11.636;2023-12-14T01:18:46;4.20;74.20
9425;DHT22;17139;52.140;11.636;2023-12-14T01:21:13;4.10;74.30
9425;DHT22;17139;52.140;11.636;2023-12-14T01:23:40;4.10;74.40
9425;DHT22;17139;52.140;11.636;2023-12-14T01:26:09;4.00;74.50
9425;DHT22;17139;52.140;11.636;2023-12-14T01:28:36;4.00;74.50
9425;DHT22;17139;52.140;11.636;2023-12-14T01:31:03;3.90;74.50
9425;DHT22;17139;52.140;11.636;2023-12-14T01:33:30;3.90;74.50
9425;DHT22;17139;52.140;11.636;2023-12-14T01:35:57;3.80;74.50
9425;DHT22;17139;52.140;11.636;2023-12-14T01:38:24;3.70;74.50
9425;DHT22;17139;52.140;11.636;2023-12-14T01:40:51;3.70;74.70
9425;DHT22;17139;52.140;11.636;2023-12-14T01:43:22;3.60;74.70
9425;DHT22;17139;52.140;11.636;2023-12-14T01:45:49;3.70;74.90
9425;DHT22;17139;52.140;11.636;2023-12-14T01:48:16;3.70;74.90
9425;DHT22;17139;52.140;11.636;2023-12-14T01:50:43;3.70;74.90
9425;DHT22;17139;52.140;11.636;2023-12-14T01:53:10;3.70;74.80
9425;DHT22;17139;52.140;11.636;2023-12-14T01:55:38;3.60;74.80
9425;DHT22;17139;52.140;11.636;2023-12-14T01:58:05;3.60;74.80
9425;DHT22;17139;52.140;11.636;2023-12-14T02:00:38;3.60;74.80
9425;DHT22;17139;52.140;11.636;2023-12-14T02:03:06;3.60;74.80
9425;DHT22;17139;52.140;11.636;2023-12-14T02:05:33;3.60;74.80
9425;DHT22;17139;52.140;11.636;2023-12-14T02:08:00;3.60;74.80
9425;DHT22;17139;52.140;11.636;2023-12-14T02:10:27;3.60;74.80
9425;DHT22;17139;52.140;11.636;2023-12-14T02:12:54;3.60;74.70
9425;DHT22;17139;52.140;11.636;2023-12-14T02:15:21;3.70;74.80
9425;DHT22;17139;52.140;11.636;2023-12-14T02:17:50;3.70;74.60
9425;DHT22;17139;52.140;11.636;2023-12-14T02:20:17;4.40;72.40
9425;DHT22;17139;52.140;11.636;2023-12-14T02:22:52;4.20;72.30
9425;DHT22;17139;52.140;11.636;2023-12-14T02:25:19;4.10;72.90
9425;DHT22;17139;52.140;11.636;2023-12-14T02:27:46;4.00;73.30
9425;DHT22;17139;52.140;11.636;2023-12-14T02:30:15;3.90;73.50
9425;DHT22;17139;52.140;11.636;2023-12-14T02:32:42;3.80;73.80
9425;DHT22;17139;52.140;11.636;2023-12-14T02:35:09;3.80;73.90
9425;DHT22;17139;52.140;11.636;2023-12-14T02:37:36;3.70;74.00
9425;DHT22;17139;52.140;11.636;2023-12-14T02:40:08;3.60;74.00
9425;DHT22;17139;52.140;11.636;2023-12-14T02:42:35;3.60;74.20
9425;DHT22;17139;52.140;11.636;2023-12-14T02:45:03;3.60;74.30
9425;DHT22;17139;52.140;11.636;2023-12-14T02:47:30;3.60;74.40
9425;DHT22;17139;52.140;11.636;2023-12-14T02:49:57;3.50;74.40
9425;DHT22;17139;52.140;11.636;2023-12-14T02:52:24;3.50;74.50
9425;DHT22;17139;52.140;11.636;2023-12-14T02:54:51;3.60;74.50
9425;DHT22;17139;52.140;11.636;2023-12-14T02:57:20;3.60;74.50
9425;DHT22;17139;52.140;11.636;2023-12-14T02:59:47;4.30;72.40
9425;DHT22;17139;52.140;11.636;2023-12-14T03:02:14;4.10;72.20
9425;DHT22;17139;52.140;11.636;2023-12-14T03:04:41;3.90;72.90
9425;DHT22;17139;52.140;11.636;2023-12-14T03:07:08;3.80;73.40
9425;DHT22;17139;52.140;11.636;2023-12-14T03:09:35;3.70;73.60
9425;DHT22;17139;52.140;11.636;2023-12-14T03:12:02;3.70;74.00
9425;DHT22;17139;52.140;11.636;2023-12-14T03:14:33;3.70;74.20
9425;DHT22;17139;52.140;11.636;2023-12-14T03:17:00;3.70;74.20
9425;DHT22;17139;52.140;11.636;2023-12-14T03:19:28;3.70;74.20
9425;DHT22;17139;52.140;11.636;2023-12-14T03:21:55;3.70;74.30
9425;DHT22;17139;52.140;11.636;2023-12-14T03:24:22;3.60;74.30
9425;DHT22;17139;52.140;11.636;2023-12-14T03:26:49;3.70;74.30
9425;DHT22;17139;52.140;11.636;2023-12-14T03:29:16;3.60;74.20
9425;DHT22;17139;52.140;11.636;2023-12-14T03:31:45;3.50;74.20
9425;DHT22;17139;52.140;11.636;2023-12-14T03:34:12;3.50;74.30
9425;DHT22;17139;52.140;11.636;2023-12-14T03:36:39;3.50;74.20
9425;DHT22;17139;52.140;11.636;2023-12-14T03:39:06;3.50;74.20
9425;DHT22;17139;52.140;11.636;2023-12-14T03:41:33;3.90;73.20
9425;DHT22;17139;52.140;11.636;2023-12-14T03:44:00;3.80;72.80
9425;DHT22;17139;52.140;11.636;2023-12-14T03:46:27;3.80;73.30
9425;DHT22;17139;52.140;11.636;2023-12-14T03:48:55;3.70;73.50
9425;DHT22;17139;52.140;11.636;2023-12-14T03:51:22;3.70;73.70
9425;DHT22;17139;52.140;11.636;2023-12-14T03:53:49;3.60;73.60
9425;DHT22;17139;52.140;11.636;2023-12-14T03:56:16;3.50;73.70
9425;DHT22;17139;52.140;11.636;2023-12-14T03:58:43;3.50;73.80
9425;DHT22;17139;52.140;11.636;2023-12-14T04:01:16;3.40;74.50
9425;DHT22;17139;52.140;11.636;2023-12-14T04:03:43;3.40;73.80
9425;DHT22;17139;52.140;11.636;2023-12-14T04:06:12;3.40;73.80
9425;DHT22;17139;52.140;11.636;2023-12-14T04:08:39;3.40;73.90
9425;DHT22;17139;52.140;11.636;2023-12-14T04:11:07;3.30;73.80
9425;DHT22;17139;52.140;11.636;2023-12-14T04:13:34;3.30;73.90
9425;DHT22;17139;52.140;11.636;2023-12-14T04:16:02;3.30;73.80
9425;DHT22;17139;52.140;11.636;2023-12-14T04:18:29;3.30;73.80
9425;DHT22;17139;52.140;11.636;2023-12-14T04:20:56;3.80;72.60
9425;DHT22;17139;52.140;11.636;2023-12-14T04:23:24;3.70;72.30
9425;DHT22;17139;52.140;11.636;2023-12-14T04:25:52;3.60;72.90
9425;DHT22;17139;52.140;11.636;2023-12-14T04:28:19;3.50;73.30
9425;DHT22;17139;52.140;11.636;2023-12-14T04:30:46;3.40;73.60
9425;DHT22;17139;52.140;11.636;2023-12-14T04:33:13;3.40;73.80
9425;DHT22;17139;52.140;11.636;2023-12-14T04:35:40;3.40;74.10
9425;DHT22;17139;52.140;11.636;2023-12-14T04:38:06;3.30;74.20
9425;DHT22;17139;52.140;11.636;2023-12-14T04:40:35;3.40;74.40
9425;DHT22;17139;52.140;11.636;2023-12-14T04:43:02;3.30;74.50
9425;DHT22;17139;52.140;11.636;2023-12-14T04:45:29;3.40;74.60
9425;DHT22;17139;52.140;11.636;2023-12-14T04:47:56;3.40;74.60
9425;DHT22;17139;52.140;11.636;2023-12-14T04:50:23;3.40;74.40
9425;DHT22;17139;52.140;11.636;2023-12-14T04:52:50;3.30;74.40
9425;DHT22;17139;52.140;11.636;2023-12-14T04:55:17;3.30;74.50
9425;DHT22;17139;52.140;11.636;2023-12-14T04:57:45;3.30;74.40
9425;DHT22;17139;52.140;11.636;2023-12-14T05:00:15;3.20;74.20
9425;DHT22;17139;52.140;11.636;2023-12-14T05:02:46;3.20;74.20
9425;DHT22;17139;52.140;11.636;2023-12-14T05:05:14;3.20;74.30
9425;DHT22;17139;52.140;11.636;2023-12-14T05:07:41;3.90;72.30
9425;DHT22;17139;52.140;11.636;2023-12-14T05:10:08;3.70;72.10
9425;DHT22;17139;52.140;11.636;2023-12-14T05:12:36;3.50;72.80
9425;DHT22;17139;52.140;11.636;2023-12-14T05:15:06;3.30;73.50
9425;DHT22;17139;52.140;11.636;2023-12-14T05:17:33;3.20;74.10
9425;DHT22;17139;52.140;11.636;2023-12-14T05:20:03;3.20;74.20
9425;DHT22;17139;52.140;11.636;2023-12-14T05:22:30;3.20;74.30
9425;DHT22;17139;52.140;11.636;2023-12-14T05:24:57;3.30;74.10
9425;DHT22;17139;52.140;11.636;2023-12-14T05:27:24;3.70;73.20
9425;DHT22;17139;52.140;11.636;2023-12-14T05:29:51;3.50;72.80
9425;DHT22;17139;52.140;11.636;2023-12-14T05:32:20;4.00;71.80
9425;DHT22;17139;52.140;11.636;2023-12-14T05:34:47;3.80;71.90
9425;DHT22;17139;52.140;11.636;2023-12-14T05:37:14;3.60;72.90
9425;DHT22;17139;52.140;11.636;2023-12-14T05:39:41;3.40;73.50
9425;DHT22;17139;52.140;11.636;2023-12-14T05:42:10;3.40;73.80
9425;DHT22;17139;52.140;11.636;2023-12-14T05:44:37;3.40;74.30
9425;DHT22;17139;52.140;11.636;2023-12-14T05:47:04;3.30;74.40
9425;DHT22;17139;52.140;11.636;2023-12-14T05:49:33;3.30;74.40
9425;DHT22;17139;52.140;11.636;2023-12-14T05:52:00;3.30;74.40
9425;DHT22;17139;52.140;11.636;2023-12-14T05:54:27;3.30;74.30
9425;DHT22;17139;52.140;11.636;2023-12-14T05:56:54;3.30;74.30
9425;DHT22;17139;52.140;11.636;2023-12-14T05:59:21;3.30;74.20
9425;DHT22;17139;52.140;11.636;2023-12-14T06:01:48;3.30;74.50
9425;DHT22;17139;52.140;11.636;2023-12-14T06:04:15;3.30;74.50
9425;DHT22;17139;52.140;11.636;2023-12-14T06:06:43;3.30;74.60
9425;DHT22;17139;52.140;11.636;2023-12-14T06:09:10;3.60;73.70
9425;DHT22;17139;52.140;11.636;2023-12-14T06:11:37;3.60;73.20
9425;DHT22;17139;52.140;11.636;2023-12-14T06:14:04;3.50;73.50
9425;DHT22;17139;52.140;11.636;2023-12-14T06:16:31;3.40;74.00
9425;DHT22;17139;52.140;11.636;2023-12-14T06:18:58;3.30;74.30
9425;DHT22;17139;52.140;11.636;2023-12-14T06:21:25;3.20;74.50
9425;DHT22;17139;52.140;11.636;2023-12-14T06:23:56;3.10;74.40
9425;DHT22;17139;52.140;11.636;2023-12-14T06:26:24;3.10;74.60
9425;DHT22;17139;52.140;11.636;2023-12-14T06:28:52;3.10;74.50
9425;DHT22;17139;52.140;11.636;2023-12-14T06:31:19;3.10;74.40
9425;DHT22;17139;52.140;11.636;2023-12-14T06:33:47;3.10;74.50
9425;DHT22;17139;52.140;11.636;2023-12-14T06:36:16;3.30;74.10
9425;DHT22;17139;52.140;11.636;2023-12-14T06:38:44;3.30;73.70
9425;DHT22;17139;52.140;11.636;2023-12-14T06:41:22;3.10;74.10
9425;DHT22;17139;52.140;11.636;2023-12-14T06:43:49;3.90;71.90
9425;DHT22;17139;52.140;11.636;2023-12-14T06:46:18;3.60;72.20
9425;DHT22;17139;52.140;11.636;2023-12-14T06:48:45;3.40;73.10
9425;DHT22;17139;52.140;11.636;2023-12-14T06:51:12;3.30;73.80
9425;DHT22;17139;52.140;11.636;2023-12-14T06:53:43;3.20;74.30
9425;DHT22;17139;52.140;11.636;2023-12-14T06:56:11;3.10;74.30
9425;DHT22;17139;52.140;11.636;2023-12-14T06:58:40;3.10;74.40
9425;DHT22;17139;52.140;11.636;2023-12-14T07:01:08;3.10;74.40
9425;DHT22;17139;52.140;11.636;2023-12-14T07:03:35;3.00;74.30
9425;DHT22;17139;52.140;11.636;2023-12-14T07:06:02;3.00;74.50
9425;DHT22;17139;52.140;11.636;2023-12-14T07:08:29;3.00;74.60
9425;DHT22;17139;52.140;11.636;2023-12-14T07:10:56;3.30;73.70
9425;DHT22;17139;52.140;11.636;2023-12-14T07:13:23;3.20;73.20
9425;DHT22;17139;52.140;11.636;2023-12-14T07:15:51;3.00;73.80
9425;DHT22;17139;52.140;11.636;2023-12-14T07:18:18;3.00;74.30
9425;DHT22;17139;52.140;11.636;2023-12-14T07:20:45;3.00;74.50
9425;DHT22;17139;52.140;11.636;2023-12-14T07:23:12;3.00;74.50
9425;DHT22;17139;52.140;11.636;2023-12-14T07:25:40;3.00;74.50
9425;DHT22;17139;52.140;11.636;2023-12-14T07:28:07;2.90;74.50
9425;DHT22;17139;52.140;11.636;2023-12-14T07:30:34;2.80;74.60
9425;DHT22;17139;52.140;11.636;2023-12-14T07:33:02;2.80;75.40
9425;DHT22;17139;52.140;11.636;2023-12-14T07:35:29;2.70;74.70
9425;DHT22;17139;52.140;11.636;2023-12-14T07:37:56;2.80;74.80
9425;DHT22;17139;52.140;11.636;2023-12-14T07:40:23;2.80;74.70
9425;DHT22;17139;52.140;11.636;2023-12-14T07:42:50;2.80;74.70
9425;DHT22;17139;52.140;11.636;2023-12-14T07:45:17;2.80;74.60
9425;DHT22;17139;52.140;11.636;2023-12-14T07:47:44;2.90;74.30
9425;DHT22;17139;52.140;11.636;2023-12-14T07:50:13;2.90;74.30
9425;DHT22;17139;52.140;11.636;2023-12-14T07:52:40;3.00;74.10
9425;DHT22;17139;52.140;11.636;2023-12-14T07:55:08;3.00;73.70
9425;DHT22;17139;52.140;11.636;2023-12-14T07:57:35;3.00;74.10
9425;DHT22;17139;52.140;11.636;2023-12-14T08:00:02;2.90;74.20
9425;DHT22;17139;52.140;11.636;2023-12-14T08:02:29;2.80;74.10
9425;DHT22;17139;52.140;11.636;2023-12-14T08:04:56;2.90;74.20
9425;DHT22;17139;52.140;11.636;2023-12-14T08:07:24;2.90;74.20
9425;DHT22;17139;52.140;11.636;2023-12-14T08:09:54;2.80;74.10
9425;DHT22;17139;52.140;11.636;2023-12-14T08:12:22;2.80;74.10
9425;DHT22;17139;52.140;11.636;2023-12-14T08:14:49;2.80;74.10
9425;DHT22;17139;52.140;11.636;2023-12-14T08:17:16;2.70;74.10
9425;DHT22;17139;52.140;11.636;2023-12-14T08:19:43;2.70;74.20
9425;DHT22;17139;52.140;11.636;2023-12-14T08:22:11;2.90;74.10
9425;DHT22;17139;52.140;11.636;2023-12-14T08:24:39;2.90;73.60
9425;DHT22;17139;52.140;11.636;2023-12-14T08:27:06;2.90;73.90
9425;DHT22;17139;52.140;11.636;2023-12-14T08:29:33;3.30;72.90
9425;DHT22;17139;52.140;11.636;2023-12-14T08:32:00;3.20;72.50
9425;DHT22;17139;52.140;11.636;2023-12-14T08:34:28;3.10;73.10
9425;DHT22;17139;52.140;11.636;2023-12-14T08:36:55;3.00;73.50
9425;DHT22;17139;52.140;11.636;2023-12-14T08:39:22;3.00;73.70
9425;DHT22;17139;52.140;11.636;2023-12-14T08:41:50;3.00;73.90
9425;DHT22;17139;52.140;11.636;2023-12-14T08:44:17;3.00;74.00
9425;DHT22;17139;52.140;11.636;2023-12-14T08:46:45;3.00;74.10
9425;DHT22;17139;52.140;11.636;2023-12-14T08:49:13;2.90;74.10
9425;DHT22;17139;52.140;11.636;2023-12-14T08:51:42;2.90;74.00
9425;DHT22;17139;52.140;11.636;2023-12-14T08:54:09;2.90;74.00
9425;DHT22;17139;52.140;11.636;2023-12-14T08:56:36;2.90;74.70
9425;DHT22;17139;52.140;11.636;2023-12-14T08:59:05;3.20;73.10
9425;DHT22;17139;52.140;11.636;2023-12-14T09:01:33;3.20;72.60
9425;DHT22;17139;52.140;11.636;2023-12-14T09:04:00;3.10;73.00
9425;DHT22;17139;52.140;11.636;2023-12-14T09:06:27;3.80;71.20
9425;DHT22;17139;52.140;11.636;2023-12-14T09:08:54;3.60;71.30
9425;DHT22;17139;52.140;11.636;2023-12-14T09:11:21;3.40;72.20
9425;DHT22;17139;52.140;11.636;2023-12-14T09:13:48;3.30;72.70
9425;DHT22;17139;52.140;11.636;2023-12-14T09:16:17;3.20;73.00
9425;DHT22;17139;52.140;11.636;2023-12-14T09:18:44;3.10;73.30
9425;DHT22;17139;52.140;11.636;2023-12-14T09:21:11;3.10;73.50
9425;DHT22;17139;52.140;11.636;2023-12-14T09:23:40;3.00;73.60
9425;DHT22;17139;52.140;11.636;2023-12-14T09:26:07;3.10;74.40
9425;DHT22;17139;52.140;11.636;2023-12-14T09:28:34;3.10;73.70
9425;DHT22;17139;52.140;11.636;2023-12-14T09:31:01;3.10;73.60
9425;DHT22;17139;52.140;11.636;2023-12-14T09:33:30;3.00;73.60
9425;DHT22;17139;52.140;11.636;2023-12-14T09:35:57;3.70;72.20
9425;DHT22;17139;52.140;11.636;2023-12-14T09:38:24;3.50;71.80
9425;DHT22;17139;52.140;11.636;2023-12-14T09:40:51;3.40;72.60
9425;DHT22;17139;52.140;11.636;2023-12-14T09:43:18;3.40;72.90
9425;DHT22;17139;52.140;11.636;2023-12-14T09:45:46;3.30;73.10
9425;DHT22;17139;52.140;11.636;2023-12-14T09:48:15;3.20;73.20
9425;DHT22;17139;52.140;11.636;2023-12-14T09:50:44;3.10;73.40
9425;DHT22;17139;52.140;11.636;2023-12-14T09:53:12;3.10;73.60
9425;DHT22;17139;52.140;11.636;2023-12-14T09:55:39;3.10;73.80
9425;DHT22;17139;52.140;11.636;2023-12-14T09:58:06;3.10;73.90
9425;DHT22;17139;52.140;11.636;2023-12-14T10:00:36;3.10;73.90
9425;DHT22;17139;52.140;11.636;2023-12-14T10:03:25;3.10;73.80
9425;DHT22;17139;52.140;11.636;2023-12-14T10:05:55;3.10;73.60
9425;DHT22;17139;52.140;11.636;2023-12-14T10:08:23;3.10;73.80
9425;DHT22;17139;52.140;11.636;2023-12-14T10:10:52;3.00;73.90
9425;DHT22;17139;52.140;11.636;2023-12-14T10:13:20;3.40;73.00
9425;DHT22;17139;52.140;11.636;2023-12-14T10:15:48;3.30;72.60
9425;DHT22;17139;52.140;11.636;2023-12-14T10:18:22;3.20;72.90
9425;DHT22;17139;52.140;11.636;2023-12-14T10:20:50;3.10;73.10
9425;DHT22;17139;52.140;11.636;2023-12-14T10:23:18;3.10;73.50
9425;DHT22;17139;52.140;11.636;2023-12-14T10:25:46;3.00;73.60
9425;DHT22;17139;52.140;11.636;2023-12-14T10:28:13;3.00;73.80
9425;DHT22;17139;52.140;11.636;2023-12-14T10:30:40;3.00;73.90
9425;DHT22;17139;52.140;11.636;2023-12-14T10:33:07;3.10;73.90
9425;DHT22;17139;52.140;11.636;2023-12-14T10:35:34;3.10;73.80
9425;DHT22;17139;52.140;11.636;2023-12-14T10:38:03;3.00;73.70
9425;DHT22;17139;52.140;11.636;2023-12-14T10:40:32;3.00;73.70
9425;DHT22;17139;52.140;11.636;2023-12-14T10:43:00;3.00;73.70
9425;DHT22;17139;52.140;11.636;2023-12-14T10:45:30;3.00;73.80
9425;DHT22;17139;52.140;11.636;2023-12-14T10:47:59;3.00;73.80
9425;DHT22;17139;52.140;11.636;2023-12-14T10:50:28;3.00;73.90
9425;DHT22;17139;52.140;11.636;2023-12-14T10:52:56;3.00;73.80
9425;DHT22;17139;52.140;11.636;2023-12-14T10:55:27;3.00;73.80
9425;DHT22;17139;52.140;11.636;2023-12-14T10:57:58;3.30;73.00
9425;DHT22;17139;52.140;11.636;2023-12-14T11:00:26;3.30;72.70
9425;DHT22;17139;52.140;11.636;2023-12-14T11:02:54;3.10;72.90
9425;DHT22;17139;52.140;11.636;2023-12-14T11:05:23;3.10;73.20
9425;DHT22;17139;52.140;11.636;2023-12-14T11:07:59;3.10;73.40
9425;DHT22;17139;52.140;11.636;2023-12-14T11:10:36;3.00;73.50
9425;DHT22;17139;52.140;11.636;2023-12-14T11:13:07;3.00;73.70
9425;DHT22;17139;52.140;11.636;2023-12-14T11:15:36;3.00;73.80
9425;DHT22;17139;52.140;11.636;2023-12-14T11:18:24;3.00;73.90
9425;DHT22;17139;52.140;11.636;2023-12-14T11:20:54;3.00;73.70
9425;DHT22;17139;52.140;11.636;2023-12-14T11:23:32;3.00;73.80
9425;DHT22;17139;52.140;11.636;2023-12-14T11:26:01;3.10;73.80
9425;DHT22;17139;52.140;11.636;2023-12-14T11:28:32;3.10;73.70
9425;DHT22;17139;52.140;11.636;2023-12-14T11:31:00;3.20;73.50
9425;DHT22;17139;52.140;11.636;2023-12-14T11:33:28;3.10;73.50
9425;DHT22;17139;52.140;11.636;2023-12-14T11:35:55;3.40;73.00
9425;DHT22;17139;52.140;11.636;2023-12-14T11:38:23;3.40;72.70
9425;DHT22;17139;52.140;11.636;2023-12-14T11:40:51;3.30;73.10
9425;DHT22;17139;52.140;11.636;2023-12-14T11:43:18;3.20;73.30
9425;DHT22;17139;52.140;11.636;2023-12-14T11:45:48;3.20;73.50
9425;DHT22;17139;52.140;11.636;2023-12-14T11:48:15;3.20;73.60
9425;DHT22;17139;52.140;11.636;2023-12-14T11:50:43;3.20;73.70
9425;DHT22;17139;52.140;11.636;2023-12-14T11:53:10;3.20;73.60
9425;DHT22;17139;52.140;11.636;2023-12-14T11:55:39;3.20;73.70
9425;DHT22;17139;52.140;11.636;2023-12-14T11:58:07;3.20;73.80
9425;DHT22;17139;52.140;11.636;2023-12-14T12:00:34;3.10;73.70
9425;DHT22;17139;52.140;11.636;2023-12-14T12:03:15;3.10;73.70
9425;DHT22;17139;52.140;11.636;2023-12-14T12:05:43;3.10;73.70
9425;DHT22;17139;52.140;11.636;2023-12-14T12:08:12;3.40;72.90
9425;DHT22;17139;52.140;11.636;2023-12-14T12:10:41;3.40;72.60
9425;DHT22;17139;52.140;11.636;2023-12-14T12:13:12;3.30;73.00
9425;DHT22;17139;52.140;11.636;2023-12-14T12:15:40;4.10;71.30
9425;DHT22;17139;52.140;11.636;2023-12-14T12:18:09;3.80;71.30
9425;DHT22;17139;52.140;11.636;2023-12-14T12:20:38;4.20;70.90
9425;DHT22;17139;52.140;11.636;2023-12-14T12:23:06;4.00;71.30
9425;DHT22;17139;52.140;11.636;2023-12-14T12:25:34;3.70;72.00
9425;DHT22;17139;52.140;11.636;2023-12-14T12:28:02;3.60;72.60
9425;DHT22;17139;52.140;11.636;2023-12-14T12:30:29;3.50;72.90
9425;DHT22;17139;52.140;11.636;2023-12-14T12:32:56;3.50;73.00
9425;DHT22;17139;52.140;11.636;2023-12-14T12:35:24;3.90;72.10
9425;DHT22;17139;52.140;11.636;2023-12-14T12:37:53;3.70;71.80
9425;DHT22;17139;52.140;11.636;2023-12-14T12:40:20;3.60;72.50
9425;DHT22;17139;52.140;11.636;2023-12-14T12:42:48;3.80;72.00
9425;DHT22;17139;52.140;11.636;2023-12-14T12:45:15;3.70;72.00
9425;DHT22;17139;52.140;11.636;2023-12-14T12:47:43;3.60;72.70
9425;DHT22;17139;52.140;11.636;2023-12-14T12:50:11;4.20;71.00
9425;DHT22;17139;52.140;11.636;2023-12-14T12:52:38;3.90;71.10
9425;DHT22;17139;52.140;11.636;2023-12-14T12:55:07;3.70;72.00
9425;DHT22;17139;52.140;11.636;2023-12-14T12:57:35;3.60;72.70
9425;DHT22;17139;52.140;11.636;2023-12-14T13:00:02;3.80;72.30
9425;DHT22;17139;52.140;11.636;2023-12-14T13:02:33;3.70;72.10
9425;DHT22;17139;52.140;11.636;2023-12-14T13:05:00;3.60;72.70
9425;DHT22;17139;52.140;11.636;2023-12-14T13:07:27;3.50;73.00
9425;DHT22;17139;52.140;11.636;2023-12-14T13:09:54;3.50;73.30
9425;DHT22;17139;52.140;11.636;2023-12-14T13:12:23;3.50;73.50
9425;DHT22;17139;52.140;11.636;2023-12-14T13:14:50;3.40;73.50
9425;DHT22;17139;52.140;11.636;2023-12-14T13:17:17;3.90;72.70
9425;DHT22;17139;52.140;11.636;2023-12-14T13:19:44;3.80;72.30
9425;DHT22;17139;52.140;11.636;2023-12-14T13:22:11;3.70;72.70
9425;DHT22;17139;52.140;11.636;2023-12-14T13:24:39;3.60;73.00
9425;DHT22;17139;52.140;11.636;2023-12-14T13:27:06;3.80;72.80
9425;DHT22;17139;52.140;11.636;2023-12-14T13:29:34;3.70;72.50
9425;DHT22;17139;52.140;11.636;2023-12-14T13:32:02;3.70;73.00
9425;DHT22;17139;52.140;11.636;2023-12-14T13:34:29;3.70;73.30
9425;DHT22;17139;52.140;11.636;2023-12-14T13:36:58;3.60;73.40
9425;DHT22;17139;52.140;11.636;2023-12-14T13:39:26;3.60;73.60
9425;DHT22;17139;52.140;11.636;2023-12-14T13:41:53;3.50;73.60
9425;DHT22;17139;52.140;11.636;2023-12-14T13:44:20;3.50;73.70
9425;DHT22;17139;52.140;11.636;2023-12-14T13:46:49;3.50;73.70
9425;DHT22;17139;52.140;11.636;2023-12-14T13:49:16;3.60;73.90
9425;DHT22;17139;52.140;11.636;2023-12-14T13:51:43;3.60;73.80
9425;DHT22;17139;52.140;11.636;2023-12-14T13:54:10;4.30;71.90
9425;DHT22;17139;52.140;11.636;2023-12-14T13:56:38;4.20;71.70
9425;DHT22;17139;52.140;11.636;2023-12-14T13:59:05;3.90;72.40
9425;DHT22;17139;52.140;11.636;2023-12-14T14:01:32;3.80;73.00
9425;DHT22;17139;52.140;11.636;2023-12-14T14:04:00;3.70;73.40
9425;DHT22;17139;52.140;11.636;2023-12-14T14:06:27;3.60;73.60
9425;DHT22;17139;52.140;11.636;2023-12-14T14:08:54;3.60;73.80
9425;DHT22;17139;52.140;11.636;2023-12-14T14:11:21;3.50;73.70
9425;DHT22;17139;52.140;11.636;2023-12-14T14:13:48;3.50;73.80
9425;DHT22;17139;52.140;11.636;2023-12-14T14:16:15;3.40;73.70
9425;DHT22;17139;52.140;11.636;2023-12-14T14:18:42;3.40;74.00
9425;DHT22;17139;52.140;11.636;2023-12-14T14:21:11;3.30;74.00
9425;DHT22;17139;52.140;11.636;2023-12-14T14:23:38;3.30;74.10
9425;DHT22;17139;52.140;11.636;2023-12-14T14:26:05;3.40;74.10
9425;DHT22;17139;52.140;11.636;2023-12-14T14:28:32;3.40;74.00
9425;DHT22;17139;52.140;11.636;2023-12-14T14:30:59;3.90;72.50
9425;DHT22;17139;52.140;11.636;2023-12-14T14:33:26;3.80;72.10
9425;DHT22;17139;52.140;11.636;2023-12-14T14:35:54;3.60;72.50
9425;DHT22;17139;52.140;11.636;2023-12-14T14:38:22;3.50;72.90
9425;DHT22;17139;52.140;11.636;2023-12-14T14:40:49;3.40;73.20
9425;DHT22;17139;52.140;11.636;2023-12-14T14:43:16;3.40;73.50
9425;DHT22;17139;52.140;11.636;2023-12-14T14:45:43;3.30;73.50
9425;DHT22;17139;52.140;11.636;2023-12-14T14:48:10;3.30;73.70
9425;DHT22;17139;52.140;11.636;2023-12-14T14:50:37;3.30;73.80
9425;DHT22;17139;52.140;11.636;2023-12-14T14:53:04;3.30;73.90
9425;DHT22;17139;52.140;11.636;2023-12-14T14:55:33;3.30;73.90
9425;DHT22;17139;52.140;11.636;2023-12-14T14:58:00;3.20;73.80
9425;DHT22;17139;52.140;11.636;2023-12-14T15:00:27;3.20;74.00
9425;DHT22;17139;52.140;11.636;2023-12-14T15:02:54;3.20;74.00
9425;DHT22;17139;52.140;11.636;2023-12-14T15:05:21;3.20;74.30
9425;DHT22;17139;52.140;11.636;2023-12-14T15:07:48;3.40;73.70
9425;DHT22;17139;52.140;11.636;2023-12-14T15:10:15;3.40;73.30
9425;DHT22;17139;52.140;11.636;2023-12-14T15:12:43;3.40;73.50
9425;DHT22;17139;52.140;11.636;2023-12-14T15:15:10;3.80;72.70
9425;DHT22;17139;52.140;11.636;2023-12-14T15:17:37;3.70;72.50
9425;DHT22;17139;52.140;11.636;2023-12-14T15:20:05;3.60;72.90
9425;DHT22;17139;52.140;11.636;2023-12-14T15:22:32;3.50;73.30
9425;DHT22;17139;52.140;11.636;2023-12-14T15:24:59;3.40;73.40
9425;DHT22;17139;52.140;11.636;2023-12-14T15:27:26;3.40;73.70
9425;DHT22;17139;52.140;11.636;2023-12-14T15:29:55;3.30;73.70
9425;DHT22;17139;52.140;11.636;2023-12-14T15:32:22;3.30;73.80
9425;DHT22;17139;52.140;11.636;2023-12-14T15:34:49;3.30;73.90
9425;DHT22;17139;52.140;11.636;2023-12-14T15:37:16;3.30;74.60
9425;DHT22;17139;52.140;11.636;2023-12-14T15:39:43;3.30;73.90
9425;DHT22;17139;52.140;11.636;2023-12-14T15:42:14;3.30;74.00
9425;DHT22;17139;52.140;11.636;2023-12-14T15:44:42;3.50;73.50
9425;DHT22;17139;52.140;11.636;2023-12-14T15:47:11;3.50;73.20